sensor_id;sensor_type;location;lat;lon;timestamp;P1;durP1;ratioP1;P2;durP2;ratioP2
34080;SDS011;20358;50.272;19.026;2022-10-22T00:02:18;5.17;;;3.80;;
34080;SDS011;20358;50.272;19.026;2022-10-22T00:05:25;5.30;;;3.73;;
34080;SDS011;20358;50.272;19.026;2022-10-22T00:08:31;5.00;;;3.47;;
34080;SDS011;20358;50.272;19.026;2022-10-22T00:11:38;4.17;;;3.43;;
34080;SDS011;20358;50.272;19.026;2022-10-22T00:14:47;4.93;;;4.43;;
34080;SDS011;20358;50.272;19.026;2022-10-22T00:17:54;3.87;;;3.57;;
34080;SDS011;20358;50.272;19.026;2022-10-22T00:20:59;5.07;;;3.67;;
34080;SDS011;20358;50.272;19.026;2022-10-22T00:24:06;4.30;;;3.67;;
34080;SDS011;20358;50.272;19.026;2022-10-22T00:27:12;4.83;;;4.33;;
34080;SDS011;20358;50.272;19.026;2022-10-22T00:30:22;6.13;;;4.43;;
34080;SDS011;20358;50.272;19.026;2022-10-22T00:33:28;4.40;;;4.00;;
34080;SDS011;20358;50.272;19.026;2022-10-22T00:36:35;4.53;;;4.00;;
34080;SDS011;20358;50.272;19.026;2022-10-22T00:39:41;5.50;;;4.30;;
34080;SDS011;20358;50.272;19.026;2022-10-22T00:42:48;4.77;;;3.87;;
34080;SDS011;20358;50.272;19.026;2022-10-22T00:45:56;4.63;;;3.60;;
34080;SDS011;20358;50.272;19.026;2022-10-22T00:49:05;5.20;;;3.97;;
34080;SDS011;20358;50.272;19.026;2022-10-22T00:52:11;4.60;;;3.63;;
34080;SDS011;20358;50.272;19.026;2022-10-22T00:55:18;4.00;;;3.50;;
34080;SDS011;20358;50.272;19.026;2022-10-22T00:58:26;4.37;;;3.60;;
34080;SDS011;20358;50.272;19.026;2022-10-22T01:01:38;4.23;;;3.57;;
34080;SDS011;20358;50.272;19.026;2022-10-22T01:04:44;4.50;;;3.50;;
34080;SDS011;20358;50.272;19.026;2022-10-22T01:07:51;4.57;;;3.23;;
34080;SDS011;20358;50.272;19.026;2022-10-22T01:11:01;3.73;;;3.33;;
34080;SDS011;20358;50.272;19.026;2022-10-22T01:14:17;5.77;;;3.50;;
34080;SDS011;20358;50.272;19.026;2022-10-22T01:17:33;3.63;;;3.13;;
34080;SDS011;20358;50.272;19.026;2022-10-22T01:20:49;4.10;;;3.20;;
34080;SDS011;20358;50.272;19.026;2022-10-22T01:24:10;4.40;;;3.30;;
34080;SDS011;20358;50.272;19.026;2022-10-22T01:27:38;5.57;;;3.73;;
34080;SDS011;20358;50.272;19.026;2022-10-22T01:30:55;4.97;;;3.63;;
34080;SDS011;20358;50.272;19.026;2022-10-22T01:34:05;4.37;;;3.80;;
34080;SDS011;20358;50.272;19.026;2022-10-22T01:37:13;5.93;;;3.50;;
34080;SDS011;20358;50.272;19.026;2022-10-22T01:40:22;5.00;;;4.00;;
34080;SDS011;20358;50.272;19.026;2022-10-22T01:43:29;3.87;;;3.47;;
34080;SDS011;20358;50.272;19.026;2022-10-22T01:46:38;5.23;;;3.57;;
34080;SDS011;20358;50.272;19.026;2022-10-22T01:49:50;5.37;;;3.53;;
34080;SDS011;20358;50.272;19.026;2022-10-22T01:53:13;3.90;;;3.50;;
34080;SDS011;20358;50.272;19.026;2022-10-22T01:56:35;4.50;;;3.43;;
34080;SDS011;20358;50.272;19.026;2022-10-22T01:59:55;4.30;;;3.73;;
34080;SDS011;20358;50.272;19.026;2022-10-22T02:03:12;5.43;;;3.47;;
34080;SDS011;20358;50.272;19.026;2022-10-22T02:06:26;4.53;;;3.47;;
34080;SDS011;20358;50.272;19.026;2022-10-22T02:09:34;5.03;;;3.50;;
34080;SDS011;20358;50.272;19.026;2022-10-22T02:12:41;6.97;;;3.70;;
34080;SDS011;20358;50.272;19.026;2022-10-22T02:15:49;4.27;;;3.50;;
34080;SDS011;20358;50.272;19.026;2022-10-22T02:19:00;4.27;;;3.40;;
34080;SDS011;20358;50.272;19.026;2022-10-22T02:22:10;4.73;;;3.60;;
34080;SDS011;20358;50.272;19.026;2022-10-22T02:25:16;5.33;;;3.73;;
34080;SDS011;20358;50.272;19.026;2022-10-22T02:28:22;3.93;;;3.57;;
34080;SDS011;20358;50.272;19.026;2022-10-22T02:31:35;3.77;;;3.33;;
34080;SDS011;20358;50.272;19.026;2022-10-22T02:34:47;4.63;;;3.77;;
34080;SDS011;20358;50.272;19.026;2022-10-22T02:37:56;7.77;;;3.97;;
34080;SDS011;20358;50.272;19.026;2022-10-22T02:41:05;5.30;;;3.43;;
34080;SDS011;20358;50.272;19.026;2022-10-22T02:44:11;5.60;;;3.40;;
34080;SDS011;20358;50.272;19.026;2022-10-22T02:47:17;6.13;;;3.40;;
34080;SDS011;20358;50.272;19.026;2022-10-22T02:50:26;3.90;;;3.50;;
34080;SDS011;20358;50.272;19.026;2022-10-22T02:53:32;3.60;;;3.30;;
34080;SDS011;20358;50.272;19.026;2022-10-22T02:56:38;5.37;;;4.10;;
34080;SDS011;20358;50.272;19.026;2022-10-22T02:59:44;4.43;;;3.43;;
34080;SDS011;20358;50.272;19.026;2022-10-22T03:02:50;4.77;;;3.57;;
34080;SDS011;20358;50.272;19.026;2022-10-22T03:05:59;4.73;;;3.70;;
34080;SDS011;20358;50.272;19.026;2022-10-22T03:09:05;4.27;;;3.50;;
34080;SDS011;20358;50.272;19.026;2022-10-22T03:12:11;5.73;;;4.03;;
34080;SDS011;20358;50.272;19.026;2022-10-22T03:15:18;4.10;;;3.70;;
34080;SDS011;20358;50.272;19.026;2022-10-22T03:18:23;4.87;;;3.33;;
34080;SDS011;20358;50.272;19.026;2022-10-22T03:21:34;4.77;;;4.00;;
34080;SDS011;20358;50.272;19.026;2022-10-22T03:24:43;5.43;;;3.50;;
34080;SDS011;20358;50.272;19.026;2022-10-22T03:27:51;4.80;;;3.30;;
34080;SDS011;20358;50.272;19.026;2022-10-22T03:31:00;4.10;;;3.40;;
34080;SDS011;20358;50.272;19.026;2022-10-22T03:34:08;4.60;;;3.57;;
34080;SDS011;20358;50.272;19.026;2022-10-22T03:37:17;5.20;;;4.20;;
34080;SDS011;20358;50.272;19.026;2022-10-22T03:40:24;4.33;;;3.80;;
34080;SDS011;20358;50.272;19.026;2022-10-22T03:43:30;6.17;;;4.03;;
34080;SDS011;20358;50.272;19.026;2022-10-22T03:46:36;4.53;;;3.93;;
34080;SDS011;20358;50.272;19.026;2022-10-22T03:49:42;4.87;;;4.00;;
34080;SDS011;20358;50.272;19.026;2022-10-22T03:52:52;4.73;;;3.53;;
34080;SDS011;20358;50.272;19.026;2022-10-22T03:55:59;5.60;;;4.33;;
34080;SDS011;20358;50.272;19.026;2022-10-22T03:59:05;5.63;;;3.93;;
34080;SDS011;20358;50.272;19.026;2022-10-22T04:02:12;5.20;;;3.93;;
34080;SDS011;20358;50.272;19.026;2022-10-22T04:05:22;4.73;;;4.03;;
34080;SDS011;20358;50.272;19.026;2022-10-22T04:08:30;5.17;;;3.83;;
34080;SDS011;20358;50.272;19.026;2022-10-22T04:11:37;4.60;;;3.60;;
34080;SDS011;20358;50.272;19.026;2022-10-22T04:14:43;5.57;;;4.53;;
34080;SDS011;20358;50.272;19.026;2022-10-22T04:17:49;4.30;;;3.77;;
34080;SDS011;20358;50.272;19.026;2022-10-22T04:20:55;6.43;;;3.97;;
34080;SDS011;20358;50.272;19.026;2022-10-22T04:24:07;4.80;;;3.73;;
34080;SDS011;20358;50.272;19.026;2022-10-22T04:27:13;7.07;;;4.80;;
34080;SDS011;20358;50.272;19.026;2022-10-22T04:30:19;5.37;;;3.90;;
34080;SDS011;20358;50.272;19.026;2022-10-22T04:33:25;4.80;;;3.60;;
34080;SDS011;20358;50.272;19.026;2022-10-22T04:36:32;4.37;;;3.57;;
34080;SDS011;20358;50.272;19.026;2022-10-22T04:39:43;4.30;;;3.90;;
34080;SDS011;20358;50.272;19.026;2022-10-22T04:42:49;4.50;;;4.10;;
34080;SDS011;20358;50.272;19.026;2022-10-22T04:45:55;3.90;;;3.43;;
34080;SDS011;20358;50.272;19.026;2022-10-22T04:49:05;5.50;;;3.50;;
34080;SDS011;20358;50.272;19.026;2022-10-22T04:52:11;6.10;;;4.30;;
34080;SDS011;20358;50.272;19.026;2022-10-22T04:55:20;5.33;;;4.50;;
34080;SDS011;20358;50.272;19.026;2022-10-22T04:58:25;6.10;;;4.40;;
34080;SDS011;20358;50.272;19.026;2022-10-22T05:01:32;4.57;;;4.00;;
34080;SDS011;20358;50.272;19.026;2022-10-22T05:04:44;5.30;;;4.17;;
34080;SDS011;20358;50.272;19.026;2022-10-22T05:07:50;4.93;;;4.00;;
34080;SDS011;20358;50.272;19.026;2022-10-22T05:10:59;4.90;;;3.60;;
34080;SDS011;20358;50.272;19.026;2022-10-22T05:14:06;4.27;;;3.70;;
34080;SDS011;20358;50.272;19.026;2022-10-22T05:17:12;5.67;;;4.20;;
34080;SDS011;20358;50.272;19.026;2022-10-22T05:20:18;4.03;;;3.67;;
34080;SDS011;20358;50.272;19.026;2022-10-22T05:23:24;4.97;;;4.23;;
34080;SDS011;20358;50.272;19.026;2022-10-22T05:26:33;4.90;;;4.00;;
34080;SDS011;20358;50.272;19.026;2022-10-22T05:29:39;4.30;;;3.67;;
34080;SDS011;20358;50.272;19.026;2022-10-22T05:32:46;5.57;;;4.03;;
34080;SDS011;20358;50.272;19.026;2022-10-22T05:35:53;4.83;;;3.77;;
34080;SDS011;20358;50.272;19.026;2022-10-22T05:39:02;4.87;;;4.13;;
34080;SDS011;20358;50.272;19.026;2022-10-22T05:42:11;6.50;;;4.00;;
34080;SDS011;20358;50.272;19.026;2022-10-22T05:45:18;5.57;;;4.07;;
34080;SDS011;20358;50.272;19.026;2022-10-22T05:48:23;5.33;;;4.37;;
34080;SDS011;20358;50.272;19.026;2022-10-22T05:51:31;4.40;;;3.50;;
34080;SDS011;20358;50.272;19.026;2022-10-22T05:54:38;4.07;;;3.47;;
34080;SDS011;20358;50.272;19.026;2022-10-22T05:57:48;6.47;;;4.13;;
34080;SDS011;20358;50.272;19.026;2022-10-22T06:00:53;5.00;;;4.27;;
34080;SDS011;20358;50.272;19.026;2022-10-22T06:04:03;4.50;;;3.67;;
34080;SDS011;20358;50.272;19.026;2022-10-22T06:07:10;5.33;;;3.90;;
34080;SDS011;20358;50.272;19.026;2022-10-22T06:10:20;5.77;;;3.47;;
34080;SDS011;20358;50.272;19.026;2022-10-22T06:13:29;6.43;;;3.87;;
34080;SDS011;20358;50.272;19.026;2022-10-22T06:16:36;5.33;;;4.30;;
34080;SDS011;20358;50.272;19.026;2022-10-22T06:19:41;5.33;;;4.10;;
34080;SDS011;20358;50.272;19.026;2022-10-22T06:22:48;5.97;;;4.87;;
34080;SDS011;20358;50.272;19.026;2022-10-22T06:25:56;4.90;;;3.50;;
34080;SDS011;20358;50.272;19.026;2022-10-22T06:29:09;6.33;;;4.23;;
34080;SDS011;20358;50.272;19.026;2022-10-22T06:32:15;6.07;;;4.30;;
34080;SDS011;20358;50.272;19.026;2022-10-22T06:35:22;4.50;;;4.07;;
34080;SDS011;20358;50.272;19.026;2022-10-22T06:38:27;5.13;;;3.90;;
34080;SDS011;20358;50.272;19.026;2022-10-22T06:41:34;4.27;;;3.80;;
34080;SDS011;20358;50.272;19.026;2022-10-22T06:44:43;8.20;;;4.17;;
34080;SDS011;20358;50.272;19.026;2022-10-22T06:47:49;5.70;;;4.03;;
34080;SDS011;20358;50.272;19.026;2022-10-22T06:50:55;6.87;;;3.73;;
34080;SDS011;20358;50.272;19.026;2022-10-22T06:54:06;4.60;;;3.50;;
34080;SDS011;20358;50.272;19.026;2022-10-22T06:57:12;5.17;;;3.80;;
34080;SDS011;20358;50.272;19.026;2022-10-22T07:00:21;4.17;;;3.77;;
34080;SDS011;20358;50.272;19.026;2022-10-22T07:03:27;6.00;;;3.90;;
34080;SDS011;20358;50.272;19.026;2022-10-22T07:06:33;5.60;;;3.80;;
34080;SDS011;20358;50.272;19.026;2022-10-22T07:09:44;4.40;;;3.70;;
34080;SDS011;20358;50.272;19.026;2022-10-22T07:12:53;6.17;;;4.50;;
34080;SDS011;20358;50.272;19.026;2022-10-22T07:16:01;5.23;;;4.17;;
34080;SDS011;20358;50.272;19.026;2022-10-22T07:19:08;5.63;;;4.17;;
34080;SDS011;20358;50.272;19.026;2022-10-22T07:22:14;4.63;;;4.10;;
34080;SDS011;20358;50.272;19.026;2022-10-22T07:25:20;6.17;;;4.10;;
34080;SDS011;20358;50.272;19.026;2022-10-22T07:28:26;6.23;;;3.87;;
34080;SDS011;20358;50.272;19.026;2022-10-22T07:31:37;6.17;;;4.30;;
34080;SDS011;20358;50.272;19.026;2022-10-22T07:34:42;6.23;;;4.30;;
34080;SDS011;20358;50.272;19.026;2022-10-22T07:37:49;5.83;;;4.20;;
34080;SDS011;20358;50.272;19.026;2022-10-22T07:40:55;5.47;;;4.00;;
34080;SDS011;20358;50.272;19.026;2022-10-22T07:44:02;5.40;;;3.97;;
34080;SDS011;20358;50.272;19.026;2022-10-22T07:47:11;7.80;;;4.77;;
34080;SDS011;20358;50.272;19.026;2022-10-22T07:50:18;6.30;;;4.70;;
34080;SDS011;20358;50.272;19.026;2022-10-22T07:53:24;5.73;;;4.27;;
34080;SDS011;20358;50.272;19.026;2022-10-22T07:56:30;8.20;;;4.10;;
34080;SDS011;20358;50.272;19.026;2022-10-22T07:59:36;6.20;;;3.83;;
34080;SDS011;20358;50.272;19.026;2022-10-22T08:02:45;5.10;;;4.07;;
34080;SDS011;20358;50.272;19.026;2022-10-22T08:05:51;4.87;;;3.73;;
34080;SDS011;20358;50.272;19.026;2022-10-22T08:08:58;5.17;;;4.53;;
34080;SDS011;20358;50.272;19.026;2022-10-22T08:12:04;6.30;;;4.60;;
34080;SDS011;20358;50.272;19.026;2022-10-22T08:15:12;4.83;;;4.20;;
34080;SDS011;20358;50.272;19.026;2022-10-22T08:18:20;4.97;;;4.20;;
34080;SDS011;20358;50.272;19.026;2022-10-22T08:21:26;4.80;;;4.10;;
34080;SDS011;20358;50.272;19.026;2022-10-22T08:24:32;4.43;;;3.67;;
34080;SDS011;20358;50.272;19.026;2022-10-22T08:27:39;5.67;;;4.30;;
34080;SDS011;20358;50.272;19.026;2022-10-22T08:30:46;6.30;;;4.20;;
34080;SDS011;20358;50.272;19.026;2022-10-22T08:33:55;5.77;;;4.33;;
34080;SDS011;20358;50.272;19.026;2022-10-22T08:37:03;5.70;;;3.97;;
34080;SDS011;20358;50.272;19.026;2022-10-22T08:40:11;4.70;;;4.20;;
34080;SDS011;20358;50.272;19.026;2022-10-22T08:43:31;6.63;;;4.20;;
34080;SDS011;20358;50.272;19.026;2022-10-22T08:46:57;5.27;;;3.93;;
34080;SDS011;20358;50.272;19.026;2022-10-22T08:50:26;7.67;;;4.33;;
34080;SDS011;20358;50.272;19.026;2022-10-22T08:53:37;6.33;;;4.07;;
34080;SDS011;20358;50.272;19.026;2022-10-22T08:56:51;7.60;;;4.90;;
34080;SDS011;20358;50.272;19.026;2022-10-22T09:00:10;4.97;;;4.20;;
34080;SDS011;20358;50.272;19.026;2022-10-22T09:03:23;6.57;;;4.23;;
34080;SDS011;20358;50.272;19.026;2022-10-22T09:06:42;5.90;;;4.27;;
34080;SDS011;20358;50.272;19.026;2022-10-22T09:09:53;7.20;;;4.00;;
34080;SDS011;20358;50.272;19.026;2022-10-22T09:13:07;6.73;;;4.47;;
34080;SDS011;20358;50.272;19.026;2022-10-22T09:16:15;5.63;;;4.37;;
34080;SDS011;20358;50.272;19.026;2022-10-22T09:19:24;5.77;;;4.20;;
34080;SDS011;20358;50.272;19.026;2022-10-22T09:22:41;6.17;;;4.93;;
34080;SDS011;20358;50.272;19.026;2022-10-22T09:25:55;6.17;;;4.63;;
34080;SDS011;20358;50.272;19.026;2022-10-22T09:29:04;6.47;;;4.87;;
34080;SDS011;20358;50.272;19.026;2022-10-22T09:32:12;6.17;;;4.80;;
34080;SDS011;20358;50.272;19.026;2022-10-22T09:35:20;5.93;;;4.60;;
34080;SDS011;20358;50.272;19.026;2022-10-22T09:38:32;5.23;;;4.73;;
34080;SDS011;20358;50.272;19.026;2022-10-22T09:41:43;6.67;;;4.87;;
34080;SDS011;20358;50.272;19.026;2022-10-22T09:44:51;6.07;;;4.63;;
34080;SDS011;20358;50.272;19.026;2022-10-22T09:48:03;4.87;;;4.27;;
34080;SDS011;20358;50.272;19.026;2022-10-22T09:51:17;6.30;;;4.17;;
34080;SDS011;20358;50.272;19.026;2022-10-22T09:54:36;4.83;;;4.30;;
34080;SDS011;20358;50.272;19.026;2022-10-22T09:57:45;5.57;;;4.63;;
34080;SDS011;20358;50.272;19.026;2022-10-22T10:00:58;7.37;;;5.13;;
34080;SDS011;20358;50.272;19.026;2022-10-22T10:04:09;6.77;;;4.87;;
34080;SDS011;20358;50.272;19.026;2022-10-22T10:07:17;6.07;;;4.37;;
34080;SDS011;20358;50.272;19.026;2022-10-22T10:10:31;5.87;;;4.50;;
34080;SDS011;20358;50.272;19.026;2022-10-22T10:13:42;7.30;;;4.87;;
34080;SDS011;20358;50.272;19.026;2022-10-22T10:16:56;6.53;;;4.80;;
34080;SDS011;20358;50.272;19.026;2022-10-22T10:20:12;5.60;;;5.10;;
34080;SDS011;20358;50.272;19.026;2022-10-22T10:23:30;5.10;;;4.40;;
34080;SDS011;20358;50.272;19.026;2022-10-22T10:26:44;5.30;;;4.80;;
34080;SDS011;20358;50.272;19.026;2022-10-22T10:30:00;7.00;;;5.07;;
34080;SDS011;20358;50.272;19.026;2022-10-22T10:33:11;8.37;;;5.27;;
34080;SDS011;20358;50.272;19.026;2022-10-22T10:36:30;6.03;;;5.20;;
34080;SDS011;20358;50.272;19.026;2022-10-22T10:39:45;6.90;;;4.70;;
34080;SDS011;20358;50.272;19.026;2022-10-22T10:43:12;5.47;;;4.87;;
34080;SDS011;20358;50.272;19.026;2022-10-22T10:46:22;6.43;;;5.23;;
34080;SDS011;20358;50.272;19.026;2022-10-22T10:49:39;5.87;;;4.60;;
34080;SDS011;20358;50.272;19.026;2022-10-22T10:52:49;8.13;;;5.70;;
34080;SDS011;20358;50.272;19.026;2022-10-22T10:56:05;6.60;;;4.87;;
34080;SDS011;20358;50.272;19.026;2022-10-22T10:59:33;6.63;;;5.37;;
34080;SDS011;20358;50.272;19.026;2022-10-22T11:02:56;7.77;;;5.53;;
34080;SDS011;20358;50.272;19.026;2022-10-22T11:06:22;7.57;;;5.77;;
34080;SDS011;20358;50.272;19.026;2022-10-22T11:09:32;8.23;;;5.53;;
34080;SDS011;20358;50.272;19.026;2022-10-22T11:12:41;7.50;;;5.97;;
34080;SDS011;20358;50.272;19.026;2022-10-22T11:15:54;7.77;;;4.60;;
34080;SDS011;20358;50.272;19.026;2022-10-22T11:19:10;7.33;;;5.43;;
34080;SDS011;20358;50.272;19.026;2022-10-22T11:22:35;6.87;;;5.57;;
34080;SDS011;20358;50.272;19.026;2022-10-22T11:26:08;7.67;;;5.50;;
34080;SDS011;20358;50.272;19.026;2022-10-22T11:29:20;9.57;;;6.37;;
34080;SDS011;20358;50.272;19.026;2022-10-22T11:32:36;7.67;;;5.70;;
34080;SDS011;20358;50.272;19.026;2022-10-22T11:35:45;8.03;;;5.60;;
34080;SDS011;20358;50.272;19.026;2022-10-22T11:38:52;6.13;;;4.97;;
34080;SDS011;20358;50.272;19.026;2022-10-22T11:42:00;8.33;;;6.00;;
34080;SDS011;20358;50.272;19.026;2022-10-22T11:48:37;9.60;;;6.90;;
34080;SDS011;20358;50.272;19.026;2022-10-22T11:51:43;9.03;;;6.70;;
34080;SDS011;20358;50.272;19.026;2022-10-22T11:54:55;9.50;;;6.90;;
34080;SDS011;20358;50.272;19.026;2022-10-22T11:58:11;9.33;;;6.37;;
34080;SDS011;20358;50.272;19.026;2022-10-22T12:01:39;7.67;;;5.70;;
34080;SDS011;20358;50.272;19.026;2022-10-22T12:04:49;6.33;;;5.70;;
34080;SDS011;20358;50.272;19.026;2022-10-22T12:07:57;8.97;;;5.87;;
34080;SDS011;20358;50.272;19.026;2022-10-22T12:11:15;7.77;;;5.50;;
34080;SDS011;20358;50.272;19.026;2022-10-22T12:14:26;5.73;;;5.13;;
34080;SDS011;20358;50.272;19.026;2022-10-22T12:17:38;7.70;;;5.33;;
34080;SDS011;20358;50.272;19.026;2022-10-22T12:20:51;6.93;;;5.67;;
34080;SDS011;20358;50.272;19.026;2022-10-22T12:24:00;7.00;;;5.33;;
34080;SDS011;20358;50.272;19.026;2022-10-22T12:27:14;9.57;;;6.37;;
34080;SDS011;20358;50.272;19.026;2022-10-22T12:30:24;7.50;;;5.80;;
34080;SDS011;20358;50.272;19.026;2022-10-22T12:33:32;7.83;;;5.90;;
34080;SDS011;20358;50.272;19.026;2022-10-22T12:36:41;7.30;;;5.43;;
34080;SDS011;20358;50.272;19.026;2022-10-22T12:39:47;7.87;;;5.73;;
34080;SDS011;20358;50.272;19.026;2022-10-22T12:42:54;6.37;;;5.67;;
34080;SDS011;20358;50.272;19.026;2022-10-22T12:46:04;7.77;;;5.67;;
34080;SDS011;20358;50.272;19.026;2022-10-22T12:49:16;9.70;;;5.97;;
34080;SDS011;20358;50.272;19.026;2022-10-22T12:52:30;7.07;;;5.67;;
34080;SDS011;20358;50.272;19.026;2022-10-22T12:55:36;9.03;;;6.57;;
34080;SDS011;20358;50.272;19.026;2022-10-22T12:58:45;8.07;;;5.83;;
34080;SDS011;20358;50.272;19.026;2022-10-22T13:01:55;8.27;;;5.17;;
34080;SDS011;20358;50.272;19.026;2022-10-22T13:05:20;6.80;;;5.53;;
34080;SDS011;20358;50.272;19.026;2022-10-22T13:08:32;6.47;;;5.47;;
34080;SDS011;20358;50.272;19.026;2022-10-22T13:11:40;8.93;;;5.97;;
34080;SDS011;20358;50.272;19.026;2022-10-22T13:14:53;7.10;;;6.03;;
34080;SDS011;20358;50.272;19.026;2022-10-22T13:18:01;7.57;;;5.87;;
34080;SDS011;20358;50.272;19.026;2022-10-22T13:21:19;8.03;;;5.90;;
34080;SDS011;20358;50.272;19.026;2022-10-22T13:24:31;8.23;;;6.40;;
34080;SDS011;20358;50.272;19.026;2022-10-22T13:27:41;8.17;;;5.93;;
34080;SDS011;20358;50.272;19.026;2022-10-22T13:30:52;6.87;;;5.50;;
34080;SDS011;20358;50.272;19.026;2022-10-22T13:33:59;7.60;;;5.57;;
34080;SDS011;20358;50.272;19.026;2022-10-22T13:37:15;7.43;;;5.40;;
34080;SDS011;20358;50.272;19.026;2022-10-22T13:40:24;7.87;;;5.43;;
34080;SDS011;20358;50.272;19.026;2022-10-22T13:43:32;7.20;;;5.20;;
34080;SDS011;20358;50.272;19.026;2022-10-22T13:46:37;8.57;;;6.70;;
34080;SDS011;20358;50.272;19.026;2022-10-22T13:49:45;10.57;;;5.67;;
34080;SDS011;20358;50.272;19.026;2022-10-22T13:52:52;7.17;;;5.60;;
34080;SDS011;20358;50.272;19.026;2022-10-22T13:56:02;9.20;;;6.40;;
34080;SDS011;20358;50.272;19.026;2022-10-22T13:59:08;7.80;;;5.20;;
34080;SDS011;20358;50.272;19.026;2022-10-22T14:02:15;7.07;;;5.30;;
34080;SDS011;20358;50.272;19.026;2022-10-22T14:05:25;8.60;;;5.80;;
34080;SDS011;20358;50.272;19.026;2022-10-22T14:08:32;7.70;;;5.60;;
34080;SDS011;20358;50.272;19.026;2022-10-22T14:11:41;7.20;;;5.70;;
34080;SDS011;20358;50.272;19.026;2022-10-22T14:14:47;7.43;;;5.47;;
34080;SDS011;20358;50.272;19.026;2022-10-22T14:17:54;6.93;;;5.73;;
34080;SDS011;20358;50.272;19.026;2022-10-22T14:21:03;7.10;;;5.40;;
34080;SDS011;20358;50.272;19.026;2022-10-22T14:24:11;8.40;;;5.60;;
34080;SDS011;20358;50.272;19.026;2022-10-22T14:27:20;7.23;;;6.03;;
34080;SDS011;20358;50.272;19.026;2022-10-22T14:30:26;7.47;;;5.37;;
34080;SDS011;20358;50.272;19.026;2022-10-22T14:33:34;8.43;;;6.13;;
34080;SDS011;20358;50.272;19.026;2022-10-22T14:36:40;8.80;;;6.83;;
34080;SDS011;20358;50.272;19.026;2022-10-22T14:39:48;11.57;;;7.83;;
34080;SDS011;20358;50.272;19.026;2022-10-22T14:43:08;8.17;;;6.70;;
34080;SDS011;20358;50.272;19.026;2022-10-22T14:46:16;9.33;;;6.60;;
34080;SDS011;20358;50.272;19.026;2022-10-22T14:49:22;8.60;;;6.97;;
34080;SDS011;20358;50.272;19.026;2022-10-22T14:52:29;8.67;;;7.13;;
34080;SDS011;20358;50.272;19.026;2022-10-22T14:55:34;10.27;;;6.73;;
34080;SDS011;20358;50.272;19.026;2022-10-22T14:58:44;9.13;;;7.03;;
34080;SDS011;20358;50.272;19.026;2022-10-22T15:01:50;8.87;;;7.03;;
34080;SDS011;20358;50.272;19.026;2022-10-22T15:04:56;9.97;;;6.80;;
34080;SDS011;20358;50.272;19.026;2022-10-22T15:08:03;9.20;;;6.73;;
34080;SDS011;20358;50.272;19.026;2022-10-22T15:11:10;11.70;;;7.87;;
34080;SDS011;20358;50.272;19.026;2022-10-22T15:14:19;11.00;;;8.10;;
34080;SDS011;20358;50.272;19.026;2022-10-22T15:17:26;11.63;;;7.40;;
34080;SDS011;20358;50.272;19.026;2022-10-22T15:20:32;8.63;;;7.17;;
34080;SDS011;20358;50.272;19.026;2022-10-22T15:23:39;11.57;;;7.60;;
34080;SDS011;20358;50.272;19.026;2022-10-22T15:26:44;9.67;;;7.30;;
34080;SDS011;20358;50.272;19.026;2022-10-22T15:29:55;10.73;;;7.83;;
34080;SDS011;20358;50.272;19.026;2022-10-22T15:33:07;10.93;;;8.20;;
34080;SDS011;20358;50.272;19.026;2022-10-22T15:36:14;11.83;;;8.17;;
34080;SDS011;20358;50.272;19.026;2022-10-22T15:39:20;9.67;;;8.20;;
34080;SDS011;20358;50.272;19.026;2022-10-22T15:42:27;11.13;;;8.43;;
34080;SDS011;20358;50.272;19.026;2022-10-22T15:45:36;11.63;;;8.50;;
34080;SDS011;20358;50.272;19.026;2022-10-22T15:48:43;11.43;;;8.80;;
34080;SDS011;20358;50.272;19.026;2022-10-22T15:51:49;12.07;;;8.33;;
34080;SDS011;20358;50.272;19.026;2022-10-22T15:54:55;12.07;;;8.63;;
34080;SDS011;20358;50.272;19.026;2022-10-22T15:58:04;11.80;;;8.27;;
34080;SDS011;20358;50.272;19.026;2022-10-22T16:01:14;13.53;;;9.17;;
34080;SDS011;20358;50.272;19.026;2022-10-22T16:04:20;12.87;;;9.40;;
34080;SDS011;20358;50.272;19.026;2022-10-22T16:07:26;14.47;;;8.90;;
34080;SDS011;20358;50.272;19.026;2022-10-22T16:10:33;14.23;;;9.50;;
34080;SDS011;20358;50.272;19.026;2022-10-22T16:13:40;13.17;;;9.33;;
34080;SDS011;20358;50.272;19.026;2022-10-22T16:16:49;11.03;;;8.87;;
34080;SDS011;20358;50.272;19.026;2022-10-22T16:19:57;14.50;;;10.20;;
34080;SDS011;20358;50.272;19.026;2022-10-22T16:23:04;12.60;;;9.17;;
34080;SDS011;20358;50.272;19.026;2022-10-22T16:26:11;10.70;;;8.17;;
34080;SDS011;20358;50.272;19.026;2022-10-22T16:29:17;13.83;;;9.10;;
34080;SDS011;20358;50.272;19.026;2022-10-22T16:32:26;12.53;;;8.10;;
34080;SDS011;20358;50.272;19.026;2022-10-22T16:35:32;12.67;;;9.37;;
34080;SDS011;20358;50.272;19.026;2022-10-22T16:38:39;11.87;;;9.70;;
34080;SDS011;20358;50.272;19.026;2022-10-22T16:41:45;14.27;;;9.40;;
34080;SDS011;20358;50.272;19.026;2022-10-22T16:44:51;14.40;;;9.47;;
34080;SDS011;20358;50.272;19.026;2022-10-22T16:48:00;15.10;;;9.80;;
34080;SDS011;20358;50.272;19.026;2022-10-22T16:51:09;13.83;;;9.33;;
34080;SDS011;20358;50.272;19.026;2022-10-22T16:54:16;15.40;;;10.13;;
34080;SDS011;20358;50.272;19.026;2022-10-22T16:57:24;13.53;;;10.10;;
34080;SDS011;20358;50.272;19.026;2022-10-22T17:00:29;11.93;;;8.77;;
34080;SDS011;20358;50.272;19.026;2022-10-22T17:03:39;15.00;;;10.37;;
34080;SDS011;20358;50.272;19.026;2022-10-22T17:06:45;12.93;;;9.27;;
34080;SDS011;20358;50.272;19.026;2022-10-22T17:09:51;13.87;;;10.50;;
34080;SDS011;20358;50.272;19.026;2022-10-22T17:12:59;13.20;;;10.10;;
34080;SDS011;20358;50.272;19.026;2022-10-22T17:16:09;14.27;;;9.43;;
34080;SDS011;20358;50.272;19.026;2022-10-22T17:19:19;14.73;;;10.07;;
34080;SDS011;20358;50.272;19.026;2022-10-22T17:22:26;15.77;;;10.47;;
34080;SDS011;20358;50.272;19.026;2022-10-22T17:25:34;12.63;;;10.50;;
34080;SDS011;20358;50.272;19.026;2022-10-22T17:28:45;14.33;;;10.00;;
34080;SDS011;20358;50.272;19.026;2022-10-22T17:31:52;11.80;;;9.80;;
34080;SDS011;20358;50.272;19.026;2022-10-22T17:35:01;14.53;;;10.17;;
34080;SDS011;20358;50.272;19.026;2022-10-22T17:38:09;16.33;;;10.70;;
34080;SDS011;20358;50.272;19.026;2022-10-22T17:41:18;14.33;;;10.57;;
34080;SDS011;20358;50.272;19.026;2022-10-22T17:44:25;15.37;;;10.60;;
34080;SDS011;20358;50.272;19.026;2022-10-22T17:47:31;15.17;;;10.40;;
34080;SDS011;20358;50.272;19.026;2022-10-22T17:50:41;17.53;;;10.63;;
34080;SDS011;20358;50.272;19.026;2022-10-22T17:53:53;13.07;;;9.70;;
34080;SDS011;20358;50.272;19.026;2022-10-22T17:57:00;16.60;;;11.57;;
34080;SDS011;20358;50.272;19.026;2022-10-22T18:00:09;16.53;;;11.83;;
34080;SDS011;20358;50.272;19.026;2022-10-22T18:03:17;13.63;;;10.40;;
34080;SDS011;20358;50.272;19.026;2022-10-22T18:06:26;14.63;;;10.03;;
34080;SDS011;20358;50.272;19.026;2022-10-22T18:09:32;14.33;;;10.43;;
34080;SDS011;20358;50.272;19.026;2022-10-22T18:12:39;15.13;;;10.47;;
34080;SDS011;20358;50.272;19.026;2022-10-22T18:15:45;13.33;;;9.93;;
34080;SDS011;20358;50.272;19.026;2022-10-22T18:18:59;14.90;;;9.90;;
34080;SDS011;20358;50.272;19.026;2022-10-22T18:22:08;16.87;;;9.90;;
34080;SDS011;20358;50.272;19.026;2022-10-22T18:25:14;16.80;;;9.70;;
34080;SDS011;20358;50.272;19.026;2022-10-22T18:28:20;14.80;;;10.03;;
34080;SDS011;20358;50.272;19.026;2022-10-22T18:31:27;13.60;;;9.77;;
34080;SDS011;20358;50.272;19.026;2022-10-22T18:34:33;16.30;;;10.83;;
34080;SDS011;20358;50.272;19.026;2022-10-22T18:37:43;15.43;;;11.40;;
34080;SDS011;20358;50.272;19.026;2022-10-22T18:40:48;16.10;;;11.47;;
34080;SDS011;20358;50.272;19.026;2022-10-22T18:43:56;18.40;;;11.93;;